首页
METAR-TAF:

METAR-TAF

机场 :

Iowa County Airport

Mineral Point, 威斯康辛州, 美国

纬度: 42-53-07N, 经度: 090-13-55W, 海拔: 359米

当前天气观测

该预报发布于19分钟前的20:15 UTC
风速23节,风向西,有时为30节阵风
温度 6°C
湿度 75%
气压 1004 hPa
能見度: 16.1公里
阴天层高于1700英尺

METAR: KMRJ 292015Z AUTO 28023G30KT 10SM OVC017 06/02 A2965 RMK AO2

时间: 15:34 (20:34 UTC)


TAF: 丢失

超过4000个机场的气象观测和天气预报(METAR&TAF报告)。

可查询的气象台以黄色和红色小点在地图上表示。

将鼠标移到小点上方,可查看气象台名称。

然后点击查看天气观测和预报。

如需切换地图:点击带黑十字的绿色按钮放大地图;点击带横线的绿色按钮缩小地图;或者点击绿色箭头查看邻近地区的地图。


METAR-TAF: